sensor_id;sensor_type;location;lat;lon;timestamp;P1;durP1;ratioP1;P2;durP2;ratioP2
28844;SDS011;15976;47.938;7.758;2023-12-29T00:02:16;9.60;;;5.50;;
28844;SDS011;15976;47.938;7.758;2023-12-29T00:04:43;10.65;;;5.70;;
28844;SDS011;15976;47.938;7.758;2023-12-29T00:07:11;9.48;;;4.93;;
28844;SDS011;15976;47.938;7.758;2023-12-29T00:09:38;9.90;;;7.32;;
28844;SDS011;15976;47.938;7.758;2023-12-29T00:12:08;8.35;;;5.03;;
28844;SDS011;15976;47.938;7.758;2023-12-29T00:14:38;8.38;;;5.75;;
28844;SDS011;15976;47.938;7.758;2023-12-29T00:17:06;7.18;;;5.18;;
28844;SDS011;15976;47.938;7.758;2023-12-29T00:19:33;8.15;;;4.57;;
28844;SDS011;15976;47.938;7.758;2023-12-29T00:22:00;7.38;;;4.78;;
28844;SDS011;15976;47.938;7.758;2023-12-29T00:24:29;7.05;;;4.78;;
28844;SDS011;15976;47.938;7.758;2023-12-29T00:27:00;8.13;;;4.20;;
28844;SDS011;15976;47.938;7.758;2023-12-29T00:29:28;7.05;;;4.63;;
28844;SDS011;15976;47.938;7.758;2023-12-29T00:32:00;5.43;;;3.95;;
28844;SDS011;15976;47.938;7.758;2023-12-29T00:34:30;5.85;;;4.45;;
28844;SDS011;15976;47.938;7.758;2023-12-29T00:36:58;5.82;;;4.47;;
28844;SDS011;15976;47.938;7.758;2023-12-29T00:39:25;5.32;;;4.13;;
28844;SDS011;15976;47.938;7.758;2023-12-29T00:41:56;5.82;;;4.18;;
28844;SDS011;15976;47.938;7.758;2023-12-29T00:44:23;5.32;;;3.80;;
28844;SDS011;15976;47.938;7.758;2023-12-29T00:46:50;6.82;;;4.43;;
28844;SDS011;15976;47.938;7.758;2023-12-29T00:49:17;6.03;;;4.60;;
28844;SDS011;15976;47.938;7.758;2023-12-29T00:51:46;6.35;;;3.70;;
28844;SDS011;15976;47.938;7.758;2023-12-29T00:54:14;6.35;;;4.35;;
28844;SDS011;15976;47.938;7.758;2023-12-29T00:56:47;6.68;;;4.50;;
28844;SDS011;15976;47.938;7.758;2023-12-29T00:59:18;8.18;;;5.25;;
28844;SDS011;15976;47.938;7.758;2023-12-29T01:01:45;6.72;;;4.10;;
28844;SDS011;15976;47.938;7.758;2023-12-29T01:04:13;5.47;;;3.90;;
28844;SDS011;15976;47.938;7.758;2023-12-29T01:06:40;7.40;;;4.38;;
28844;SDS011;15976;47.938;7.758;2023-12-29T01:09:07;4.47;;;3.95;;
28844;SDS011;15976;47.938;7.758;2023-12-29T01:11:36;6.47;;;4.35;;
28844;SDS011;15976;47.938;7.758;2023-12-29T01:14:03;6.15;;;5.07;;
28844;SDS011;15976;47.938;7.758;2023-12-29T01:16:31;7.32;;;4.68;;
28844;SDS011;15976;47.938;7.758;2023-12-29T01:18:58;6.13;;;4.50;;
28844;SDS011;15976;47.938;7.758;2023-12-29T01:21:25;6.43;;;4.72;;
28844;SDS011;15976;47.938;7.758;2023-12-29T01:23:54;8.73;;;4.93;;
28844;SDS011;15976;47.938;7.758;2023-12-29T01:26:21;7.00;;;5.28;;
28844;SDS011;15976;47.938;7.758;2023-12-29T01:28:49;11.35;;;5.20;;
28844;SDS011;15976;47.938;7.758;2023-12-29T01:31:16;7.55;;;5.50;;
28844;SDS011;15976;47.938;7.758;2023-12-29T01:33:43;8.95;;;5.45;;
28844;SDS011;15976;47.938;7.758;2023-12-29T01:36:16;8.13;;;5.15;;
28844;SDS011;15976;47.938;7.758;2023-12-29T01:38:51;9.68;;;5.53;;
28844;SDS011;15976;47.938;7.758;2023-12-29T01:41:21;12.15;;;5.88;;
28844;SDS011;15976;47.938;7.758;2023-12-29T01:46:28;7.60;;;5.97;;
28844;SDS011;15976;47.938;7.758;2023-12-29T01:48:57;9.77;;;5.75;;
28844;SDS011;15976;47.938;7.758;2023-12-29T01:51:25;8.43;;;6.10;;
28844;SDS011;15976;47.938;7.758;2023-12-29T01:53:54;7.15;;;6.05;;
28844;SDS011;15976;47.938;7.758;2023-12-29T01:56:22;8.90;;;5.72;;
28844;SDS011;15976;47.938;7.758;2023-12-29T01:58:50;10.40;;;6.15;;
28844;SDS011;15976;47.938;7.758;2023-12-29T02:01:18;8.85;;;5.85;;
28844;SDS011;15976;47.938;7.758;2023-12-29T02:03:46;6.25;;;4.68;;
28844;SDS011;15976;47.938;7.758;2023-12-29T02:06:14;8.55;;;6.55;;
28844;SDS011;15976;47.938;7.758;2023-12-29T02:08:44;10.30;;;6.72;;
28844;SDS011;15976;47.938;7.758;2023-12-29T02:11:11;10.75;;;6.45;;
28844;SDS011;15976;47.938;7.758;2023-12-29T02:13:39;9.07;;;6.20;;
28844;SDS011;15976;47.938;7.758;2023-12-29T02:16:08;9.30;;;6.15;;
28844;SDS011;15976;47.938;7.758;2023-12-29T02:18:38;8.63;;;5.68;;
28844;SDS011;15976;47.938;7.758;2023-12-29T02:21:10;8.50;;;6.15;;
28844;SDS011;15976;47.938;7.758;2023-12-29T02:23:37;12.82;;;6.40;;
28844;SDS011;15976;47.938;7.758;2023-12-29T02:26:07;6.93;;;5.78;;
28844;SDS011;15976;47.938;7.758;2023-12-29T02:28:38;8.63;;;5.82;;
28844;SDS011;15976;47.938;7.758;2023-12-29T02:31:14;7.68;;;5.43;;
28844;SDS011;15976;47.938;7.758;2023-12-29T02:33:47;10.30;;;5.97;;
28844;SDS011;15976;47.938;7.758;2023-12-29T02:36:16;9.98;;;6.47;;
28844;SDS011;15976;47.938;7.758;2023-12-29T02:38:44;10.57;;;6.22;;
28844;SDS011;15976;47.938;7.758;2023-12-29T02:41:11;7.88;;;5.70;;
28844;SDS011;15976;47.938;7.758;2023-12-29T02:43:39;9.35;;;5.10;;
28844;SDS011;15976;47.938;7.758;2023-12-29T02:46:07;9.57;;;5.68;;
28844;SDS011;15976;47.938;7.758;2023-12-29T02:48:34;7.40;;;5.82;;
28844;SDS011;15976;47.938;7.758;2023-12-29T02:51:01;8.57;;;5.78;;
28844;SDS011;15976;47.938;7.758;2023-12-29T02:53:28;8.52;;;5.55;;
28844;SDS011;15976;47.938;7.758;2023-12-29T02:55:56;8.48;;;5.57;;
28844;SDS011;15976;47.938;7.758;2023-12-29T02:58:23;8.13;;;5.78;;
28844;SDS011;15976;47.938;7.758;2023-12-29T03:00:50;8.73;;;5.45;;
28844;SDS011;15976;47.938;7.758;2023-12-29T03:03:17;5.47;;;3.53;;
28844;SDS011;15976;47.938;7.758;2023-12-29T03:05:45;7.22;;;5.80;;
28844;SDS011;15976;47.938;7.758;2023-12-29T03:08:12;11.57;;;5.78;;
28844;SDS011;15976;47.938;7.758;2023-12-29T03:10:39;6.32;;;5.10;;
28844;SDS011;15976;47.938;7.758;2023-12-29T03:13:06;6.95;;;5.28;;
28844;SDS011;15976;47.938;7.758;2023-12-29T03:15:34;7.07;;;5.53;;
28844;SDS011;15976;47.938;7.758;2023-12-29T03:18:02;7.43;;;5.60;;
28844;SDS011;15976;47.938;7.758;2023-12-29T03:20:30;8.73;;;5.70;;
28844;SDS011;15976;47.938;7.758;2023-12-29T03:22:57;9.10;;;5.80;;
28844;SDS011;15976;47.938;7.758;2023-12-29T03:25:24;8.13;;;5.70;;
28844;SDS011;15976;47.938;7.758;2023-12-29T03:27:52;9.60;;;5.78;;
28844;SDS011;15976;47.938;7.758;2023-12-29T03:30:20;7.40;;;5.30;;
28844;SDS011;15976;47.938;7.758;2023-12-29T03:32:48;6.53;;;5.20;;
28844;SDS011;15976;47.938;7.758;2023-12-29T03:35:15;8.23;;;5.38;;
28844;SDS011;15976;47.938;7.758;2023-12-29T03:37:43;9.65;;;5.43;;
28844;SDS011;15976;47.938;7.758;2023-12-29T03:40:10;7.97;;;5.40;;
28844;SDS011;15976;47.938;7.758;2023-12-29T03:42:39;7.43;;;5.85;;
28844;SDS011;15976;47.938;7.758;2023-12-29T03:45:06;7.28;;;5.07;;
28844;SDS011;15976;47.938;7.758;2023-12-29T03:47:34;7.82;;;5.95;;
28844;SDS011;15976;47.938;7.758;2023-12-29T03:50:03;7.75;;;5.00;;
28844;SDS011;15976;47.938;7.758;2023-12-29T03:52:31;11.10;;;5.40;;
28844;SDS011;15976;47.938;7.758;2023-12-29T03:54:59;11.40;;;5.70;;
28844;SDS011;15976;47.938;7.758;2023-12-29T03:57:26;9.77;;;5.05;;
28844;SDS011;15976;47.938;7.758;2023-12-29T03:59:54;7.47;;;5.28;;
28844;SDS011;15976;47.938;7.758;2023-12-29T04:02:21;11.75;;;4.72;;
28844;SDS011;15976;47.938;7.758;2023-12-29T04:04:48;6.82;;;4.57;;
28844;SDS011;15976;47.938;7.758;2023-12-29T04:07:15;6.68;;;4.22;;
28844;SDS011;15976;47.938;7.758;2023-12-29T04:09:42;5.28;;;3.90;;
28844;SDS011;15976;47.938;7.758;2023-12-29T04:12:10;5.13;;;4.03;;
28844;SDS011;15976;47.938;7.758;2023-12-29T04:14:37;6.07;;;4.40;;
28844;SDS011;15976;47.938;7.758;2023-12-29T04:17:03;6.97;;;4.45;;
28844;SDS011;15976;47.938;7.758;2023-12-29T04:19:40;5.95;;;4.13;;
28844;SDS011;15976;47.938;7.758;2023-12-29T04:22:07;4.60;;;3.45;;
28844;SDS011;15976;47.938;7.758;2023-12-29T04:24:37;6.53;;;3.65;;
28844;SDS011;15976;47.938;7.758;2023-12-29T04:27:04;6.57;;;3.50;;
28844;SDS011;15976;47.938;7.758;2023-12-29T04:29:31;6.65;;;4.22;;
28844;SDS011;15976;47.938;7.758;2023-12-29T04:31:58;5.10;;;3.83;;
28844;SDS011;15976;47.938;7.758;2023-12-29T04:34:25;7.20;;;3.83;;
28844;SDS011;15976;47.938;7.758;2023-12-29T04:36:54;8.43;;;4.25;;
28844;SDS011;15976;47.938;7.758;2023-12-29T04:39:21;6.13;;;4.05;;
28844;SDS011;15976;47.938;7.758;2023-12-29T04:41:49;6.97;;;4.00;;
28844;SDS011;15976;47.938;7.758;2023-12-29T04:44:16;4.30;;;3.50;;
28844;SDS011;15976;47.938;7.758;2023-12-29T04:46:43;5.03;;;3.70;;
28844;SDS011;15976;47.938;7.758;2023-12-29T04:49:10;6.30;;;3.80;;
28844;SDS011;15976;47.938;7.758;2023-12-29T04:51:38;5.13;;;3.65;;
28844;SDS011;15976;47.938;7.758;2023-12-29T04:54:06;5.32;;;3.90;;
28844;SDS011;15976;47.938;7.758;2023-12-29T04:56:32;4.93;;;3.47;;
28844;SDS011;15976;47.938;7.758;2023-12-29T04:58:59;7.40;;;3.60;;
28844;SDS011;15976;47.938;7.758;2023-12-29T05:01:27;4.40;;;3.40;;
28844;SDS011;15976;47.938;7.758;2023-12-29T05:03:54;4.10;;;3.45;;
28844;SDS011;15976;47.938;7.758;2023-12-29T05:06:21;5.28;;;3.30;;
28844;SDS011;15976;47.938;7.758;2023-12-29T05:08:48;4.53;;;3.55;;
28844;SDS011;15976;47.938;7.758;2023-12-29T05:11:15;4.50;;;3.00;;
28844;SDS011;15976;47.938;7.758;2023-12-29T05:13:43;5.78;;;3.08;;
28844;SDS011;15976;47.938;7.758;2023-12-29T05:16:10;4.68;;;3.83;;
28844;SDS011;15976;47.938;7.758;2023-12-29T05:18:37;7.90;;;3.70;;
28844;SDS011;15976;47.938;7.758;2023-12-29T05:21:05;6.15;;;3.53;;
28844;SDS011;15976;47.938;7.758;2023-12-29T05:23:40;4.88;;;3.40;;
28844;SDS011;15976;47.938;7.758;2023-12-29T05:26:07;6.07;;;3.47;;
28844;SDS011;15976;47.938;7.758;2023-12-29T05:28:33;5.95;;;3.70;;
28844;SDS011;15976;47.938;7.758;2023-12-29T05:31:00;4.35;;;3.28;;
28844;SDS011;15976;47.938;7.758;2023-12-29T05:33:30;4.82;;;3.47;;
28844;SDS011;15976;47.938;7.758;2023-12-29T05:35:58;5.13;;;3.50;;
28844;SDS011;15976;47.938;7.758;2023-12-29T05:38:31;4.85;;;3.35;;
28844;SDS011;15976;47.938;7.758;2023-12-29T05:40:59;5.20;;;3.65;;
28844;SDS011;15976;47.938;7.758;2023-12-29T05:43:27;4.90;;;3.50;;
28844;SDS011;15976;47.938;7.758;2023-12-29T05:45:54;4.45;;;3.28;;
28844;SDS011;15976;47.938;7.758;2023-12-29T05:48:21;4.47;;;3.60;;
28844;SDS011;15976;47.938;7.758;2023-12-29T05:50:51;4.65;;;3.58;;
28844;SDS011;15976;47.938;7.758;2023-12-29T05:53:18;4.22;;;3.13;;
28844;SDS011;15976;47.938;7.758;2023-12-29T05:55:45;7.25;;;3.38;;
28844;SDS011;15976;47.938;7.758;2023-12-29T05:58:12;4.15;;;3.50;;
28844;SDS011;15976;47.938;7.758;2023-12-29T06:00:39;4.75;;;3.08;;
28844;SDS011;15976;47.938;7.758;2023-12-29T06:03:06;5.78;;;3.47;;
28844;SDS011;15976;47.938;7.758;2023-12-29T06:05:34;4.60;;;3.33;;
28844;SDS011;15976;47.938;7.758;2023-12-29T06:08:01;4.15;;;3.28;;
28844;SDS011;15976;47.938;7.758;2023-12-29T06:10:28;6.00;;;3.63;;
28844;SDS011;15976;47.938;7.758;2023-12-29T06:12:55;4.32;;;3.33;;
28844;SDS011;15976;47.938;7.758;2023-12-29T06:15:22;3.90;;;3.03;;
28844;SDS011;15976;47.938;7.758;2023-12-29T06:17:49;5.38;;;3.30;;
28844;SDS011;15976;47.938;7.758;2023-12-29T06:20:16;4.00;;;3.03;;
28844;SDS011;15976;47.938;7.758;2023-12-29T06:22:43;4.10;;;3.28;;
28844;SDS011;15976;47.938;7.758;2023-12-29T06:25:11;6.40;;;3.72;;
28844;SDS011;15976;47.938;7.758;2023-12-29T06:27:38;7.78;;;4.85;;
28844;SDS011;15976;47.938;7.758;2023-12-29T06:30:07;8.00;;;5.55;;
28844;SDS011;15976;47.938;7.758;2023-12-29T06:32:35;4.18;;;3.63;;
28844;SDS011;15976;47.938;7.758;2023-12-29T06:35:03;4.32;;;3.22;;
28844;SDS011;15976;47.938;7.758;2023-12-29T06:37:30;4.70;;;3.35;;
28844;SDS011;15976;47.938;7.758;2023-12-29T06:39:58;3.42;;;2.95;;
28844;SDS011;15976;47.938;7.758;2023-12-29T06:42:25;3.35;;;3.03;;
28844;SDS011;15976;47.938;7.758;2023-12-29T06:44:53;5.60;;;3.22;;
28844;SDS011;15976;47.938;7.758;2023-12-29T06:47:20;5.00;;;3.55;;
28844;SDS011;15976;47.938;7.758;2023-12-29T06:49:48;6.32;;;3.60;;
28844;SDS011;15976;47.938;7.758;2023-12-29T06:52:16;5.97;;;3.63;;
28844;SDS011;15976;47.938;7.758;2023-12-29T06:54:43;5.25;;;3.80;;
28844;SDS011;15976;47.938;7.758;2023-12-29T06:57:10;4.10;;;3.35;;
28844;SDS011;15976;47.938;7.758;2023-12-29T06:59:40;4.32;;;3.28;;
28844;SDS011;15976;47.938;7.758;2023-12-29T07:02:07;4.15;;;3.55;;
28844;SDS011;15976;47.938;7.758;2023-12-29T07:04:34;4.28;;;2.85;;
28844;SDS011;15976;47.938;7.758;2023-12-29T07:07:01;3.80;;;2.83;;
28844;SDS011;15976;47.938;7.758;2023-12-29T07:09:29;4.82;;;3.10;;
28844;SDS011;15976;47.938;7.758;2023-12-29T07:11:56;6.38;;;3.55;;
28844;SDS011;15976;47.938;7.758;2023-12-29T07:14:23;5.30;;;3.00;;
28844;SDS011;15976;47.938;7.758;2023-12-29T07:16:50;4.97;;;3.00;;
28844;SDS011;15976;47.938;7.758;2023-12-29T07:19:17;4.85;;;3.20;;
28844;SDS011;15976;47.938;7.758;2023-12-29T07:21:44;4.45;;;2.70;;
28844;SDS011;15976;47.938;7.758;2023-12-29T07:24:11;3.92;;;2.80;;
28844;SDS011;15976;47.938;7.758;2023-12-29T07:26:38;5.15;;;2.80;;
28844;SDS011;15976;47.938;7.758;2023-12-29T07:29:05;5.30;;;3.20;;
28844;SDS011;15976;47.938;7.758;2023-12-29T07:31:33;3.22;;;2.58;;
28844;SDS011;15976;47.938;7.758;2023-12-29T07:34:04;4.13;;;2.72;;
28844;SDS011;15976;47.938;7.758;2023-12-29T07:36:31;3.97;;;2.75;;
28844;SDS011;15976;47.938;7.758;2023-12-29T07:38:58;4.00;;;3.00;;
28844;SDS011;15976;47.938;7.758;2023-12-29T07:41:28;4.50;;;3.10;;
28844;SDS011;15976;47.938;7.758;2023-12-29T07:43:55;4.80;;;2.72;;
28844;SDS011;15976;47.938;7.758;2023-12-29T07:46:25;3.65;;;2.60;;
28844;SDS011;15976;47.938;7.758;2023-12-29T07:48:53;3.63;;;2.70;;
28844;SDS011;15976;47.938;7.758;2023-12-29T07:51:20;3.33;;;2.50;;
28844;SDS011;15976;47.938;7.758;2023-12-29T07:53:47;4.13;;;2.33;;
28844;SDS011;15976;47.938;7.758;2023-12-29T07:56:14;3.42;;;2.60;;
28844;SDS011;15976;47.938;7.758;2023-12-29T07:58:41;4.05;;;2.58;;
28844;SDS011;15976;47.938;7.758;2023-12-29T08:01:12;4.35;;;2.67;;
28844;SDS011;15976;47.938;7.758;2023-12-29T08:03:39;6.90;;;3.45;;
28844;SDS011;15976;47.938;7.758;2023-12-29T08:06:06;4.72;;;2.50;;
28844;SDS011;15976;47.938;7.758;2023-12-29T08:08:34;3.03;;;2.38;;
28844;SDS011;15976;47.938;7.758;2023-12-29T08:11:01;3.78;;;2.42;;
28844;SDS011;15976;47.938;7.758;2023-12-29T08:13:28;3.00;;;2.35;;
28844;SDS011;15976;47.938;7.758;2023-12-29T08:15:55;3.42;;;2.35;;
28844;SDS011;15976;47.938;7.758;2023-12-29T08:18:22;3.35;;;2.22;;
28844;SDS011;15976;47.938;7.758;2023-12-29T08:20:49;4.97;;;2.60;;
28844;SDS011;15976;47.938;7.758;2023-12-29T08:23:16;5.30;;;3.10;;
28844;SDS011;15976;47.938;7.758;2023-12-29T08:25:43;3.00;;;2.42;;
28844;SDS011;15976;47.938;7.758;2023-12-29T08:28:10;2.42;;;2.22;;
28844;SDS011;15976;47.938;7.758;2023-12-29T08:30:39;4.50;;;1.77;;
28844;SDS011;15976;47.938;7.758;2023-12-29T08:33:07;3.63;;;2.60;;
28844;SDS011;15976;47.938;7.758;2023-12-29T08:35:34;2.33;;;2.13;;
28844;SDS011;15976;47.938;7.758;2023-12-29T08:38:01;3.45;;;2.35;;
28844;SDS011;15976;47.938;7.758;2023-12-29T08:40:28;3.58;;;2.38;;
28844;SDS011;15976;47.938;7.758;2023-12-29T08:42:55;2.92;;;2.28;;
28844;SDS011;15976;47.938;7.758;2023-12-29T08:45:23;2.45;;;2.17;;
28844;SDS011;15976;47.938;7.758;2023-12-29T08:47:50;2.72;;;2.20;;
28844;SDS011;15976;47.938;7.758;2023-12-29T08:50:17;4.38;;;3.38;;
28844;SDS011;15976;47.938;7.758;2023-12-29T08:52:44;5.03;;;3.70;;
28844;SDS011;15976;47.938;7.758;2023-12-29T08:55:11;5.03;;;3.30;;
28844;SDS011;15976;47.938;7.758;2023-12-29T08:57:38;2.78;;;2.00;;
28844;SDS011;15976;47.938;7.758;2023-12-29T09:00:06;3.63;;;2.75;;
28844;SDS011;15976;47.938;7.758;2023-12-29T09:02:35;3.42;;;2.47;;
28844;SDS011;15976;47.938;7.758;2023-12-29T09:05:03;3.13;;;2.05;;
28844;SDS011;15976;47.938;7.758;2023-12-29T09:07:30;3.40;;;2.42;;
28844;SDS011;15976;47.938;7.758;2023-12-29T09:09:59;3.28;;;2.58;;
28844;SDS011;15976;47.938;7.758;2023-12-29T09:12:29;3.97;;;2.10;;
28844;SDS011;15976;47.938;7.758;2023-12-29T09:14:56;6.75;;;4.90;;
28844;SDS011;15976;47.938;7.758;2023-12-29T09:17:23;2.85;;;2.53;;
28844;SDS011;15976;47.938;7.758;2023-12-29T09:19:50;3.13;;;2.33;;
28844;SDS011;15976;47.938;7.758;2023-12-29T09:22:29;4.95;;;4.43;;
28844;SDS011;15976;47.938;7.758;2023-12-29T09:24:56;6.07;;;5.03;;
28844;SDS011;15976;47.938;7.758;2023-12-29T09:27:23;2.17;;;1.98;;
28844;SDS011;15976;47.938;7.758;2023-12-29T09:29:50;2.83;;;2.50;;
28844;SDS011;15976;47.938;7.758;2023-12-29T09:32:17;2.33;;;2.08;;
28844;SDS011;15976;47.938;7.758;2023-12-29T09:34:44;2.72;;;2.30;;
28844;SDS011;15976;47.938;7.758;2023-12-29T09:37:11;2.65;;;2.15;;
28844;SDS011;15976;47.938;7.758;2023-12-29T09:39:38;3.90;;;2.70;;
28844;SDS011;15976;47.938;7.758;2023-12-29T09:42:06;2.85;;;2.05;;
28844;SDS011;15976;47.938;7.758;2023-12-29T09:44:35;3.70;;;2.78;;
28844;SDS011;15976;47.938;7.758;2023-12-29T09:47:03;2.60;;;2.15;;
28844;SDS011;15976;47.938;7.758;2023-12-29T09:49:34;4.13;;;2.72;;
28844;SDS011;15976;47.938;7.758;2023-12-29T09:52:09;5.25;;;3.30;;
28844;SDS011;15976;47.938;7.758;2023-12-29T09:54:39;3.10;;;2.55;;
28844;SDS011;15976;47.938;7.758;2023-12-29T09:57:06;3.17;;;2.60;;
28844;SDS011;15976;47.938;7.758;2023-12-29T09:59:35;3.78;;;2.65;;
28844;SDS011;15976;47.938;7.758;2023-12-29T10:02:04;2.38;;;2.15;;
28844;SDS011;15976;47.938;7.758;2023-12-29T10:04:32;3.97;;;2.53;;
28844;SDS011;15976;47.938;7.758;2023-12-29T10:07:02;4.68;;;3.78;;
28844;SDS011;15976;47.938;7.758;2023-12-29T10:09:31;3.15;;;2.38;;
28844;SDS011;15976;47.938;7.758;2023-12-29T10:12:02;3.95;;;3.13;;
28844;SDS011;15976;47.938;7.758;2023-12-29T10:25:47;5.15;;;2.10;;
28844;SDS011;15976;47.938;7.758;2023-12-29T10:28:16;4.15;;;3.10;;
28844;SDS011;15976;47.938;7.758;2023-12-29T10:30:47;14.93;;;3.38;;
28844;SDS011;15976;47.938;7.758;2023-12-29T10:33:20;3.72;;;2.45;;
28844;SDS011;15976;47.938;7.758;2023-12-29T10:35:58;3.58;;;2.40;;
28844;SDS011;15976;47.938;7.758;2023-12-29T10:38:30;2.15;;;1.92;;
28844;SDS011;15976;47.938;7.758;2023-12-29T10:41:09;3.70;;;2.92;;
28844;SDS011;15976;47.938;7.758;2023-12-29T10:43:41;3.60;;;2.65;;
28844;SDS011;15976;47.938;7.758;2023-12-29T10:46:09;5.57;;;2.72;;
28844;SDS011;15976;47.938;7.758;2023-12-29T10:48:38;11.75;;;6.25;;
28844;SDS011;15976;47.938;7.758;2023-12-29T10:51:06;8.10;;;5.28;;
28844;SDS011;15976;47.938;7.758;2023-12-29T10:53:33;4.07;;;3.17;;
28844;SDS011;15976;47.938;7.758;2023-12-29T10:56:16;5.60;;;4.20;;
28844;SDS011;15976;47.938;7.758;2023-12-29T10:58:56;10.77;;;6.03;;
28844;SDS011;15976;47.938;7.758;2023-12-29T11:01:34;3.55;;;2.65;;
28844;SDS011;15976;47.938;7.758;2023-12-29T11:04:06;3.75;;;3.03;;
28844;SDS011;15976;47.938;7.758;2023-12-29T11:06:43;5.03;;;3.50;;
28844;SDS011;15976;47.938;7.758;2023-12-29T11:09:14;5.57;;;3.30;;
28844;SDS011;15976;47.938;7.758;2023-12-29T11:12:01;5.30;;;3.60;;
28844;SDS011;15976;47.938;7.758;2023-12-29T11:14:29;5.28;;;2.70;;
28844;SDS011;15976;47.938;7.758;2023-12-29T11:16:57;2.78;;;2.45;;
28844;SDS011;15976;47.938;7.758;2023-12-29T11:19:28;3.63;;;2.72;;
28844;SDS011;15976;47.938;7.758;2023-12-29T11:21:56;3.25;;;2.30;;
28844;SDS011;15976;47.938;7.758;2023-12-29T11:24:24;3.28;;;2.33;;
28844;SDS011;15976;47.938;7.758;2023-12-29T11:27:04;3.08;;;2.33;;
28844;SDS011;15976;47.938;7.758;2023-12-29T11:29:34;2.65;;;2.05;;
28844;SDS011;15976;47.938;7.758;2023-12-29T11:32:02;4.35;;;2.60;;
28844;SDS011;15976;47.938;7.758;2023-12-29T11:34:34;2.95;;;2.20;;
28844;SDS011;15976;47.938;7.758;2023-12-29T11:42:40;3.22;;;2.00;;
28844;SDS011;15976;47.938;7.758;2023-12-29T11:45:27;2.22;;;1.60;;
28844;SDS011;15976;47.938;7.758;2023-12-29T11:47:58;5.40;;;2.00;;
28844;SDS011;15976;47.938;7.758;2023-12-29T11:50:30;2.97;;;2.30;;
28844;SDS011;15976;47.938;7.758;2023-12-29T11:52:58;2.92;;;2.15;;
28844;SDS011;15976;47.938;7.758;2023-12-29T11:55:28;2.95;;;2.15;;
28844;SDS011;15976;47.938;7.758;2023-12-29T11:57:57;1.42;;;1.33;;
28844;SDS011;15976;47.938;7.758;2023-12-29T12:03:14;4.88;;;2.30;;
28844;SDS011;15976;47.938;7.758;2023-12-29T12:05:51;3.45;;;2.20;;
28844;SDS011;15976;47.938;7.758;2023-12-29T12:10:57;2.78;;;2.20;;
28844;SDS011;15976;47.938;7.758;2023-12-29T12:13:56;4.57;;;2.67;;
28844;SDS011;15976;47.938;7.758;2023-12-29T12:19:09;3.35;;;2.35;;
28844;SDS011;15976;47.938;7.758;2023-12-29T12:21:37;6.25;;;4.55;;
28844;SDS011;15976;47.938;7.758;2023-12-29T12:24:04;3.78;;;3.15;;
28844;SDS011;15976;47.938;7.758;2023-12-29T12:26:32;4.78;;;2.65;;
28844;SDS011;15976;47.938;7.758;2023-12-29T12:28:59;8.18;;;2.80;;
28844;SDS011;15976;47.938;7.758;2023-12-29T12:31:26;3.30;;;2.70;;
28844;SDS011;15976;47.938;7.758;2023-12-29T12:33:54;4.03;;;2.10;;
28844;SDS011;15976;47.938;7.758;2023-12-29T12:36:24;7.35;;;3.40;;
28844;SDS011;15976;47.938;7.758;2023-12-29T12:38:53;4.57;;;2.90;;
28844;SDS011;15976;47.938;7.758;2023-12-29T12:41:23;6.05;;;3.25;;
28844;SDS011;15976;47.938;7.758;2023-12-29T12:43:57;7.20;;;4.47;;
28844;SDS011;15976;47.938;7.758;2023-12-29T12:46:43;4.53;;;2.85;;
28844;SDS011;15976;47.938;7.758;2023-12-29T12:49:14;4.32;;;2.60;;
28844;SDS011;15976;47.938;7.758;2023-12-29T12:51:42;4.35;;;3.30;;
28844;SDS011;15976;47.938;7.758;2023-12-29T12:54:10;4.55;;;3.03;;
28844;SDS011;15976;47.938;7.758;2023-12-29T12:56:41;4.20;;;2.42;;
28844;SDS011;15976;47.938;7.758;2023-12-29T12:59:09;4.05;;;2.50;;
28844;SDS011;15976;47.938;7.758;2023-12-29T13:01:37;18.33;;;10.18;;
28844;SDS011;15976;47.938;7.758;2023-12-29T13:04:05;15.95;;;9.07;;
28844;SDS011;15976;47.938;7.758;2023-12-29T13:06:33;6.35;;;3.42;;
28844;SDS011;15976;47.938;7.758;2023-12-29T13:09:05;5.73;;;3.00;;
28844;SDS011;15976;47.938;7.758;2023-12-29T13:11:38;5.10;;;3.58;;
28844;SDS011;15976;47.938;7.758;2023-12-29T13:14:07;6.40;;;4.03;;
28844;SDS011;15976;47.938;7.758;2023-12-29T13:16:35;9.95;;;6.28;;
28844;SDS011;15976;47.938;7.758;2023-12-29T13:19:15;6.30;;;3.95;;
28844;SDS011;15976;47.938;7.758;2023-12-29T13:21:46;4.03;;;2.78;;
28844;SDS011;15976;47.938;7.758;2023-12-29T13:24:14;6.35;;;2.90;;
28844;SDS011;15976;47.938;7.758;2023-12-29T13:26:44;3.58;;;2.58;;
28844;SDS011;15976;47.938;7.758;2023-12-29T13:29:14;4.15;;;3.17;;
28844;SDS011;15976;47.938;7.758;2023-12-29T13:31:41;5.00;;;2.65;;
28844;SDS011;15976;47.938;7.758;2023-12-29T13:34:13;6.68;;;2.97;;
28844;SDS011;15976;47.938;7.758;2023-12-29T13:36:50;4.57;;;2.70;;
28844;SDS011;15976;47.938;7.758;2023-12-29T13:39:27;5.50;;;4.15;;
28844;SDS011;15976;47.938;7.758;2023-12-29T13:42:13;8.05;;;3.10;;
28844;SDS011;15976;47.938;7.758;2023-12-29T13:44:42;2.50;;;2.30;;
28844;SDS011;15976;47.938;7.758;2023-12-29T13:47:10;4.35;;;2.75;;
28844;SDS011;15976;47.938;7.758;2023-12-29T13:49:38;3.28;;;2.30;;
28844;SDS011;15976;47.938;7.758;2023-12-29T13:52:06;4.45;;;2.83;;
28844;SDS011;15976;47.938;7.758;2023-12-29T13:54:42;5.40;;;2.92;;
28844;SDS011;15976;47.938;7.758;2023-12-29T13:57:10;4.70;;;3.40;;
28844;SDS011;15976;47.938;7.758;2023-12-29T13:59:38;6.45;;;3.88;;
28844;SDS011;15976;47.938;7.758;2023-12-29T14:02:19;8.60;;;6.53;;
28844;SDS011;15976;47.938;7.758;2023-12-29T14:05:11;8.70;;;5.15;;
28844;SDS011;15976;47.938;7.758;2023-12-29T14:07:52;5.97;;;3.97;;
28844;SDS011;15976;47.938;7.758;2023-12-29T14:10:35;4.95;;;3.60;;
28844;SDS011;15976;47.938;7.758;2023-12-29T14:13:13;6.00;;;3.90;;
28844;SDS011;15976;47.938;7.758;2023-12-29T14:15:42;4.90;;;3.08;;
28844;SDS011;15976;47.938;7.758;2023-12-29T14:24:00;8.25;;;7.15;;
28844;SDS011;15976;47.938;7.758;2023-12-29T14:26:33;4.15;;;3.67;;
28844;SDS011;15976;47.938;7.758;2023-12-29T14:29:03;5.38;;;3.60;;
28844;SDS011;15976;47.938;7.758;2023-12-29T14:31:31;5.68;;;3.45;;
28844;SDS011;15976;47.938;7.758;2023-12-29T14:34:02;7.55;;;3.53;;
28844;SDS011;15976;47.938;7.758;2023-12-29T14:36:33;5.68;;;2.70;;
28844;SDS011;15976;47.938;7.758;2023-12-29T14:39:01;4.45;;;3.67;;
28844;SDS011;15976;47.938;7.758;2023-12-29T14:41:29;7.05;;;3.45;;
28844;SDS011;15976;47.938;7.758;2023-12-29T14:43:57;5.20;;;4.28;;
28844;SDS011;15976;47.938;7.758;2023-12-29T14:46:24;10.10;;;7.47;;
28844;SDS011;15976;47.938;7.758;2023-12-29T14:48:52;11.25;;;8.05;;
28844;SDS011;15976;47.938;7.758;2023-12-29T14:51:19;12.32;;;8.35;;
28844;SDS011;15976;47.938;7.758;2023-12-29T14:53:48;5.22;;;4.40;;
28844;SDS011;15976;47.938;7.758;2023-12-29T14:56:16;8.63;;;4.55;;
28844;SDS011;15976;47.938;7.758;2023-12-29T14:58:44;4.70;;;3.70;;
28844;SDS011;15976;47.938;7.758;2023-12-29T15:01:11;5.35;;;3.88;;
28844;SDS011;15976;47.938;7.758;2023-12-29T15:03:39;5.88;;;4.63;;
28844;SDS011;15976;47.938;7.758;2023-12-29T15:06:06;6.78;;;4.47;;
28844;SDS011;15976;47.938;7.758;2023-12-29T15:08:34;5.00;;;3.33;;
28844;SDS011;15976;47.938;7.758;2023-12-29T15:11:04;5.30;;;4.22;;
28844;SDS011;15976;47.938;7.758;2023-12-29T15:13:34;5.82;;;4.10;;
28844;SDS011;15976;47.938;7.758;2023-12-29T15:16:02;5.30;;;3.33;;
28844;SDS011;15976;47.938;7.758;2023-12-29T15:18:30;4.57;;;3.60;;
28844;SDS011;15976;47.938;7.758;2023-12-29T15:20:58;2.95;;;2.45;;
28844;SDS011;15976;47.938;7.758;2023-12-29T15:23:25;4.40;;;3.00;;
28844;SDS011;15976;47.938;7.758;2023-12-29T15:25:54;4.57;;;3.40;;
28844;SDS011;15976;47.938;7.758;2023-12-29T15:28:22;5.00;;;3.42;;
28844;SDS011;15976;47.938;7.758;2023-12-29T15:30:50;5.30;;;3.80;;
28844;SDS011;15976;47.938;7.758;2023-12-29T15:33:20;5.70;;;3.72;;